Time;durP1;ratioP1;P1;durP2;ratioP2;P2;SDS_P1;SDS_P2;PMS_P1;PMS_P2;Temp;Humidity;BMP_temperature;BMP_pressure;BME280_temperature;BME280_humidity;BME280_pressure;Samples;Min_cycle;Max_cycle;Signal;HPM_P1;HPM_P2
2022/01/24 00:00:13;;;;;;;;;;;;;;;9.49;53.24;102347.28;5005397;28;6827;-70
2022/01/24 00:02:41;;;;;;;;;;;;;;;9.47;52.45;102347.91;5040520;28;8083;-70
2022/01/24 00:05:07;;;;;;;;;;;;;;;9.44;52.93;102348.53;5008738;28;7281;-70
2022/01/24 00:07:33;;;;;;;;;;;;;;;9.42;52.93;102351.00;5040332;28;6953;-70
2022/01/24 00:10:02;;;;;;;;;;;;;;;9.39;52.29;102339.59;5021415;28;6796;-70
2022/01/24 00:16:02;;;;;;;;;;;;;;;9.33;52.40;102334.84;5022051;28;6820;-70
2022/01/24 00:18:05;;;;;;;;;;;;;;;9.31;52.76;102337.28;5015162;28;6844;-70
2022/01/24 00:28:28;;;;;;;;;;;;;;;9.27;53.06;102335.25;5030047;28;7242;-70
2022/01/24 00:30:55;;;;;;;;;;;;;;;9.26;52.31;102332.53;5039161;28;6780;-70
2022/01/24 00:33:21;;;;;;;;;;;;;;;9.24;53.75;102324.72;5021722;28;9470;-70
2022/01/24 00:35:50;;;;;;;;;;;;;;;9.23;53.15;102334.84;5018237;28;6895;-71
2022/01/24 00:38:16;;;;;;;;;;;;;;;9.20;52.53;102329.44;5027420;28;6831;-71
2022/01/24 00:40:44;;;;;;;;;;;;;;;9.21;53.05;102328.69;5031593;28;6894;-71
2022/01/24 00:43:25;;;;;;;;;;;;;;;9.18;52.94;102331.91;5037084;28;7027;-71
2022/01/24 00:56:12;;;;;;;;;;;;;;;9.03;53.04;102334.94;5022687;28;7144;-70
2022/01/24 00:58:38;;;;;;;;;;;;;;;9.02;53.24;102332.22;5034393;28;6958;-70
2022/01/24 01:01:05;;;;;;;;;;;;;;;8.96;52.86;102327.50;5037452;28;6783;-70
2022/01/24 01:03:31;;;;;;;;;;;;;;;8.92;52.50;102329.66;5022453;28;7972;-70
2022/01/24 01:06:08;;;;;;;;;;;;;;;8.87;52.76;102324.16;5023659;28;6886;-70
2022/01/24 01:19:38;;;;;;;;;;;;;;;8.36;52.88;102312.97;5036575;28;6915;-70
2022/01/24 01:22:05;;;;;;;;;;;;;;;8.28;52.77;102311.38;5004410;28;8999;-70
2022/01/24 01:24:35;;;;;;;;;;;;;;;8.19;52.90;102309.81;5021418;28;6789;-70
2022/01/24 01:27:09;;;;;;;;;;;;;;;8.11;53.18;102312.47;5026356;28;6928;-70
2022/01/24 01:29:48;;;;;;;;;;;;;;;8.02;53.22;102312.56;5027781;28;6831;-70
2022/01/24 01:37:46;;;;;;;;;;;;;;;7.78;53.56;102313.06;4986534;28;7031;-70
2022/01/24 01:54:28;;;;;;;;;;;;;;;7.27;53.40;102321.19;5025981;28;6903;-70
2022/01/24 01:56:53;;;;;;;;;;;;;;;7.14;53.87;102319.16;5037687;28;7241;-70
2022/01/24 01:59:19;;;;;;;;;;;;;;;7.08;53.93;102326.22;5019411;28;9348;-70
2022/01/24 02:01:45;;;;;;;;;;;;;;;7.01;54.39;102318.78;5021366;28;6870;-70
2022/01/24 02:04:10;;;;;;;;;;;;;;;6.94;54.77;102317.28;5020677;28;7013;-70
2022/01/24 02:06:38;;;;;;;;;;;;;;;6.87;54.64;102314.94;5022282;28;7892;-70
2022/01/24 02:09:11;;;;;;;;;;;;;;;6.79;54.25;102309.09;5006875;28;6852;-70
2022/01/24 02:11:36;;;;;;;;;;;;;;;6.72;54.81;102311.84;5023327;28;6878;-70
2022/01/24 02:14:07;;;;;;;;;;;;;;;6.65;54.44;102318.00;5019705;28;6969;-70
2022/01/24 02:16:51;;;;;;;;;;;;;;;6.58;55.31;102305.44;5030881;28;7217;-70
2022/01/24 02:19:27;;;;;;;;;;;;;;;6.46;55.10;102313.69;5025682;28;7322;-70
2022/01/24 02:22:17;;;;;;;;;;;;;;;6.39;55.14;102311.34;5035233;28;6910;-70
2022/01/24 02:24:51;;;;;;;;;;;;;;;6.30;55.25;102310.44;5017413;28;6994;-70
2022/01/24 02:27:18;;;;;;;;;;;;;;;6.19;55.20;102300.13;5053168;28;6907;-70
2022/01/24 02:32:12;;;;;;;;;;;;;;;6.05;55.12;102297.88;5018038;28;6824;-70
2022/01/24 02:34:41;;;;;;;;;;;;;;;5.97;55.50;102305.63;5017151;28;6835;-70
2022/01/24 02:37:12;;;;;;;;;;;;;;;5.89;55.52;102301.47;5015946;28;6827;-70
2022/01/24 02:50:24;;;;;;;;;;;;;;;5.56;56.31;102300.84;5025490;28;7406;-71
2022/01/24 02:52:50;;;;;;;;;;;;;;;5.52;56.07;102305.50;5030247;28;6872;-70
2022/01/24 02:55:15;;;;;;;;;;;;;;;5.47;56.20;102310.13;5035868;28;6783;-70
2022/01/24 02:57:41;;;;;;;;;;;;;;;5.44;56.41;102314.00;5030329;28;7186;-70
2022/01/24 03:00:07;;;;;;;;;;;;;;;5.39;56.19;102316.97;5019036;28;6907;-70
2022/01/24 03:02:33;;;;;;;;;;;;;;;5.34;56.37;102313.09;5032977;28;6826;-70
2022/01/24 03:04:59;;;;;;;;;;;;;;;5.30;56.64;102307.53;5032440;28;6918;-70
2022/01/24 03:07:25;;;;;;;;;;;;;;;5.26;56.29;102301.25;5020753;28;7854;-70
2022/01/24 03:09:54;;;;;;;;;;;;;;;5.23;56.75;102300.94;5038290;28;6811;-70
2022/01/24 03:12:39;;;;;;;;;;;;;;;5.20;57.06;102303.16;5031872;28;7298;-70
2022/01/24 03:15:07;;;;;;;;;;;;;;;5.16;56.74;102303.59;5029911;28;6986;-70
2022/01/24 03:17:33;;;;;;;;;;;;;;;5.11;56.81;102300.59;5018788;28;6808;-70
2022/01/24 03:19:58;;;;;;;;;;;;;;;5.08;56.75;102297.75;5039670;28;6772;-70
2022/01/24 03:22:24;;;;;;;;;;;;;;;5.04;56.56;102291.47;5035366;28;6815;-70
2022/01/24 03:24:50;;;;;;;;;;;;;;;5.00;56.53;102302.06;5032991;28;7086;-70
2022/01/24 03:27:16;;;;;;;;;;;;;;;4.97;57.41;102296.66;5037210;28;7063;-70
2022/01/24 03:29:42;;;;;;;;;;;;;;;4.93;57.13;102292.03;5039833;28;7274;-70
2022/01/24 03:32:08;;;;;;;;;;;;;;;4.88;56.79;102288.13;5019696;28;7805;-70
2022/01/24 03:34:34;;;;;;;;;;;;;;;4.84;56.66;102287.81;5037850;28;6800;-70
2022/01/24 03:37:00;;;;;;;;;;;;;;;4.83;57.36;102287.66;5022942;28;6842;-70
2022/01/24 03:39:26;;;;;;;;;;;;;;;4.84;57.80;102287.81;5029092;28;7869;-70
2022/01/24 03:41:52;;;;;;;;;;;;;;;4.83;57.45;102285.09;5027981;28;6876;-70
2022/01/24 03:44:19;;;;;;;;;;;;;;;4.80;57.88;102283.16;5026785;28;6791;-70
2022/01/24 03:47:01;;;;;;;;;;;;;;;4.79;57.70;102288.97;5038282;28;7228;-70
2022/01/24 03:49:48;;;;;;;;;;;;;;;4.74;57.14;102290.16;5037618;28;7177;-70
2022/01/24 03:52:19;;;;;;;;;;;;;;;4.69;57.05;102287.16;5038434;28;8131;-70
2022/01/24 03:54:47;;;;;;;;;;;;;;;4.66;57.79;102275.78;5012043;28;6896;-70
2022/01/24 03:57:17;;;;;;;;;;;;;;;4.65;57.17;102284.16;5031044;28;7349;-70
2022/01/24 03:59:43;;;;;;;;;;;;;;;4.59;57.29;102292.03;5046992;28;8328;-70
2022/01/24 04:02:12;;;;;;;;;;;;;;;4.51;57.30;102282.72;5024610;28;6803;-70
2022/01/24 04:04:38;;;;;;;;;;;;;;;4.47;57.87;102289.13;5022200;28;7373;-70
2022/01/24 04:07:04;;;;;;;;;;;;;;;4.44;57.13;102283.72;5038109;28;7227;-70
2022/01/24 04:09:30;;;;;;;;;;;;;;;4.39;57.34;102279.81;5038067;28;7066;-70
2022/01/24 04:11:58;;;;;;;;;;;;;;;4.36;58.15;102280.38;5039743;28;7875;-70
2022/01/24 04:15:06;;;;;;;;;;;;;;;4.34;57.56;102289.50;5039085;28;7064;-70
2022/01/24 04:17:38;;;;;;;;;;;;;;;4.31;57.75;102289.19;5024250;28;6836;-70
2022/01/24 04:22:51;;;;;;;;;;;;;;;4.24;57.58;102290.16;5026704;28;8153;-70
2022/01/24 04:25:22;;;;;;;;;;;;;;;4.21;58.00;102288.97;5020576;28;6839;-70
2022/01/24 04:27:50;;;;;;;;;;;;;;;4.19;57.70;102283.72;5004887;28;7237;-70
2022/01/24 04:30:16;;;;;;;;;;;;;;;4.17;57.67;102287.75;5022789;28;6820;-70
2022/01/24 04:32:41;;;;;;;;;;;;;;;4.15;58.00;102277.44;5035107;28;7109;-70
2022/01/24 04:35:08;;;;;;;;;;;;;;;4.13;57.42;102286.53;5039146;28;7884;-71
2022/01/24 04:37:33;;;;;;;;;;;;;;;4.11;58.44;102288.00;5022550;28;6804;-70
2022/01/24 04:39:59;;;;;;;;;;;;;;;4.09;57.20;102283.50;5039484;28;6772;-70
2022/01/24 04:42:36;;;;;;;;;;;;;;;4.03;58.01;102279.56;5019931;28;6963;-71
2022/01/24 04:53:43;;;;;;;;;;;;;;;3.90;57.78;102289.19;5058538;28;6993;-70
2022/01/24 04:56:01;;;;;;;;;;;;;;;3.88;58.01;102293.22;5024169;28;6831;-70
2022/01/24 04:58:26;;;;;;;;;;;;;;;3.85;57.88;102295.41;5025596;28;7491;-70
2022/01/24 05:00:52;;;;;;;;;;;;;;;3.82;58.43;102292.56;5028910;28;6967;-70
2022/01/24 05:03:18;;;;;;;;;;;;;;;3.79;58.05;102294.78;5027967;28;6808;-70
2022/01/24 05:05:44;;;;;;;;;;;;;;;3.76;58.59;102300.41;5039500;28;6783;-70
2022/01/24 05:08:10;;;;;;;;;;;;;;;3.73;58.32;102298.44;5019839;28;7876;-70
2022/01/24 05:10:51;;;;;;;;;;;;;;;3.71;58.71;102305.00;5002959;28;6875;-70
2022/01/24 05:24:16;;;;;;;;;;;;;;;3.69;59.73;102314.09;5034460;28;7073;-70
2022/01/24 05:26:42;;;;;;;;;;;;;;;3.70;59.34;102312.44;5036272;28;6795;-71
2022/01/24 05:29:07;;;;;;;;;;;;;;;3.71;58.68;102309.16;5018379;28;6776;-70
2022/01/24 05:31:33;;;;;;;;;;;;;;;3.72;58.83;102316.06;5037115;28;6811;-72
2022/01/24 05:33:59;;;;;;;;;;;;;;;3.71;58.31;102317.69;5038418;28;6791;-72
2022/01/24 05:36:24;;;;;;;;;;;;;;;3.70;59.08;102315.88;5021721;28;6982;-72
2022/01/24 05:38:50;;;;;;;;;;;;;;;3.72;59.23;102311.88;4989573;28;7200;-72
2022/01/24 05:41:17;;;;;;;;;;;;;;;3.76;58.72;102323.25;5024060;28;6828;-72
2022/01/24 05:43:43;;;;;;;;;;;;;;;3.80;59.75;102317.75;5028507;28;7034;-72
2022/01/24 05:46:08;;;;;;;;;;;;;;;3.84;59.49;102311.38;5036325;28;6784;-72
2022/01/24 05:48:34;;;;;;;;;;;;;;;3.89;58.83;102315.31;5033561;28;6971;-72
2022/01/24 05:51:00;;;;;;;;;;;;;;;3.94;59.48;102308.19;5046058;28;6953;-72
2022/01/24 05:53:25;;;;;;;;;;;;;;;3.98;59.83;102315.34;5036060;28;6787;-72
2022/01/24 05:55:53;;;;;;;;;;;;;;;4.02;58.74;102318.38;5036304;28;6783;-72
2022/01/24 05:58:19;;;;;;;;;;;;;;;4.05;59.88;102312.75;5060127;28;6941;-72
2022/01/24 06:00:44;;;;;;;;;;;;;;;4.11;59.80;102317.56;5026353;28;6788;-72
2022/01/24 06:03:10;;;;;;;;;;;;;;;4.16;59.27;102326.56;5039470;28;7892;-72
2022/01/24 06:05:36;;;;;;;;;;;;;;;4.23;59.69;102326.44;5020051;28;6776;-72
2022/01/24 06:08:02;;;;;;;;;;;;;;;4.27;60.18;102314.97;5026094;28;6974;-72
2022/01/24 06:10:27;;;;;;;;;;;;;;;4.34;59.68;102316.50;5026811;28;6803;-72
2022/01/24 06:12:53;;;;;;;;;;;;;;;4.39;59.18;102320.44;5054633;28;6859;-72
2022/01/24 06:15:19;;;;;;;;;;;;;;;4.44;59.27;102324.34;5036726;28;6882;-72
2022/01/24 06:17:44;;;;;;;;;;;;;;;4.48;59.39;102316.31;5024048;28;6961;-72
2022/01/24 06:20:11;;;;;;;;;;;;;;;4.53;59.78;102309.16;5031929;28;6783;-72
2022/01/24 06:22:38;;;;;;;;;;;;;;;4.59;59.77;102319.97;5028012;28;6811;-72
2022/01/24 06:25:07;;;;;;;;;;;;;;;4.65;59.11;102324.78;5041244;28;7861;-72
2022/01/24 06:27:32;;;;;;;;;;;;;;;4.69;59.53;102316.72;5026597;28;7330;-72
2022/01/24 06:29:58;;;;;;;;;;;;;;;4.74;59.95;102320.66;5019868;28;6807;-72
2022/01/24 06:32:24;;;;;;;;;;;;;;;4.79;59.84;102329.63;5020019;28;6965;-72
2022/01/24 06:34:49;;;;;;;;;;;;;;;4.85;59.42;102329.34;5034337;28;6807;-72
2022/01/24 06:37:15;;;;;;;;;;;;;;;4.90;59.38;102337.44;5005581;28;6910;-72
2022/01/24 06:39:41;;;;;;;;;;;;;;;4.95;60.27;102332.09;5021811;28;7418;-72
2022/01/24 06:42:22;;;;;;;;;;;;;;;5.03;59.42;102329.44;5023322;28;7248;-72
2022/01/24 06:44:51;;;;;;;;;;;;;;;5.10;59.53;102332.72;5037846;28;6911;-72
2022/01/24 06:47:17;;;;;;;;;;;;;;;5.18;59.61;102330.06;5012570;28;6942;-72
2022/01/24 06:49:42;;;;;;;;;;;;;;;5.22;59.53;102328.00;5031309;28;6787;-73
2022/01/24 06:52:08;;;;;;;;;;;;;;;5.25;59.84;102323.22;5002932;28;6898;-73
2022/01/24 06:54:36;;;;;;;;;;;;;;;5.28;59.21;102322.63;5021920;28;7183;-73
2022/01/24 06:57:03;;;;;;;;;;;;;;;5.34;59.84;102327.44;5029613;28;7819;-73
2022/01/24 06:59:30;;;;;;;;;;;;;;;5.38;59.47;102330.44;5018708;28;7168;-73
2022/01/24 07:01:55;;;;;;;;;;;;;;;5.43;59.82;102320.72;5018252;28;6795;-72
2022/01/24 07:04:21;;;;;;;;;;;;;;;5.50;59.51;102320.59;5063142;28;7225;-73
2022/01/24 07:06:47;;;;;;;;;;;;;;;5.56;59.38;102322.84;5019574;28;6823;-73
2022/01/24 07:09:13;;;;;;;;;;;;;;;5.58;59.45;102316.25;5021348;28;6799;-73
2022/01/24 07:11:40;;;;;;;;;;;;;;;5.61;58.76;102324.22;5034776;28;6796;-70
2022/01/24 07:14:11;;;;;;;;;;;;;;;5.63;59.25;102327.78;5020343;28;6884;-70
2022/01/24 07:17:01;;;;;;;;;;;;;;;5.65;59.15;102325.38;5060102;28;7259;-70
2022/01/24 07:19:30;;;;;;;;;;;;;;;5.67;59.57;102323.91;5032177;28;7002;-70
2022/01/24 07:22:00;;;;;;;;;;;;;;;5.68;58.94;102323.16;5033289;28;6840;-70
2022/01/24 07:24:27;;;;;;;;;;;;;;;5.71;59.04;102326.00;5032727;28;6898;-70
2022/01/24 07:26:53;;;;;;;;;;;;;;;5.73;59.12;102328.72;5024560;28;6868;-70
2022/01/24 07:29:20;;;;;;;;;;;;;;;5.73;58.99;102336.34;5026595;28;6795;-70
2022/01/24 07:31:46;;;;;;;;;;;;;;;5.69;58.75;102333.47;5027072;28;6788;-70
2022/01/24 07:34:13;;;;;;;;;;;;;;;5.66;58.66;102340.81;5013491;28;6800;-70
2022/01/24 07:36:39;;;;;;;;;;;;;;;5.62;58.77;102341.28;5042517;28;6989;-70
2022/01/24 07:39:05;;;;;;;;;;;;;;;5.58;58.58;102343.34;5031314;28;6989;-70
2022/01/24 07:41:33;;;;;;;;;;;;;;;5.51;58.99;102339.31;5044396;28;6828;-70
2022/01/24 07:43:59;;;;;;;;;;;;;;;5.46;58.73;102343.03;5024794;28;6823;-70
2022/01/24 07:46:25;;;;;;;;;;;;;;;5.42;58.55;102342.72;5019368;28;7359;-70
2022/01/24 07:48:51;;;;;;;;;;;;;;;5.39;58.78;102337.31;5020407;28;6827;-70
2022/01/24 07:51:17;;;;;;;;;;;;;;;5.34;58.27;102338.50;5021074;28;6795;-70
2022/01/24 07:53:45;;;;;;;;;;;;;;;5.28;58.65;102332.81;5024140;28;6795;-70
2022/01/24 07:56:12;;;;;;;;;;;;;;;5.24;58.05;102338.34;5044533;28;6974;-70
2022/01/24 07:58:38;;;;;;;;;;;;;;;5.19;58.44;102342.97;5039922;28;6811;-70
2022/01/24 08:01:04;;;;;;;;;;;;;;;5.14;58.18;102333.94;5028802;28;6803;-70
2022/01/24 08:03:30;;;;;;;;;;;;;;;5.10;58.30;102342.91;5039515;28;6803;-70
2022/01/24 08:05:56;;;;;;;;;;;;;;;5.08;58.11;102339.31;5027553;28;7008;-70
2022/01/24 08:08:21;;;;;;;;;;;;;;;5.05;58.70;102339.00;5024537;28;6860;-70
2022/01/24 08:10:47;;;;;;;;;;;;;;;5.03;58.61;102343.06;5030423;28;6945;-70
2022/01/24 08:13:13;;;;;;;;;;;;;;;5.01;58.95;102341.97;5059385;28;7324;-72
2022/01/24 08:15:40;;;;;;;;;;;;;;;4.99;58.32;102349.47;5022927;28;6819;-72
2022/01/24 08:18:06;;;;;;;;;;;;;;;4.99;58.15;102343.47;5025690;28;6813;-72
2022/01/24 08:20:33;;;;;;;;;;;;;;;5.00;58.24;102350.34;5025456;28;6823;-72
2022/01/24 08:23:00;;;;;;;;;;;;;;;4.99;58.54;102349.47;5042597;28;6903;-73
2022/01/24 08:25:26;;;;;;;;;;;;;;;5.00;58.94;102352.88;5025234;28;7218;-72
2022/01/24 08:27:53;;;;;;;;;;;;;;;5.03;59.23;102354.84;5027020;28;6864;-72
2022/01/24 08:30:23;;;;;;;;;;;;;;;5.04;59.00;102354.09;5039122;28;6808;-72
2022/01/24 08:32:49;;;;;;;;;;;;;;;5.06;58.48;102361.16;5037954;28;6975;-72
2022/01/24 08:35:19;;;;;;;;;;;;;;;5.08;59.14;102359.66;5026763;28;6808;-72
2022/01/24 08:37:46;;;;;;;;;;;;;;;5.12;59.41;102356.69;5026151;28;7062;-72
2022/01/24 08:40:24;;;;;;;;;;;;;;;5.16;59.31;102362.09;5026079;28;7408;-72
2022/01/24 08:42:59;;;;;;;;;;;;;;;5.19;59.04;102359.84;5025935;28;7035;-72
2022/01/24 08:45:44;;;;;;;;;;;;;;;5.24;58.94;102363.75;5031036;28;7020;-72
2022/01/24 08:48:11;;;;;;;;;;;;;;;5.27;59.26;102358.97;5031530;28;7180;-72
2022/01/24 08:50:37;;;;;;;;;;;;;;;5.31;59.50;102366.19;5023547;28;6825;-72
2022/01/24 08:53:04;;;;;;;;;;;;;;;5.38;59.37;102371.13;5025421;28;6859;-72
2022/01/24 08:55:33;;;;;;;;;;;;;;;5.42;58.97;102365.63;5039066;28;6922;-72
2022/01/24 08:58:02;;;;;;;;;;;;;;;5.49;59.16;102367.13;5026717;28;7064;-73
2022/01/24 09:00:29;;;;;;;;;;;;;;;5.55;59.31;102364.28;5020808;28;6872;-73
2022/01/24 09:02:55;;;;;;;;;;;;;;;5.63;59.48;102362.50;4991431;28;7888;-73
2022/01/24 09:05:23;;;;;;;;;;;;;;;5.68;59.41;102369.84;5019757;28;6800;-73
2022/01/24 09:07:50;;;;;;;;;;;;;;;5.74;59.72;102367.00;5021449;28;7280;-73
2022/01/24 09:10:17;;;;;;;;;;;;;;;5.81;59.03;102358.34;5023535;28;7848;-73
2022/01/24 09:12:42;;;;;;;;;;;;;;;5.90;59.54;102360.91;5016375;28;7125;-72
2022/01/24 09:15:09;;;;;;;;;;;;;;;5.96;59.27;102359.84;5019410;28;7289;-72
2022/01/24 09:17:35;;;;;;;;;;;;;;;6.03;59.36;102357.94;5016990;28;7173;-72
2022/01/24 09:20:02;;;;;;;;;;;;;;;6.09;59.15;102350.91;5021726;28;6800;-70
2022/01/24 09:22:27;;;;;;;;;;;;;;;6.17;59.78;102359.28;5018759;28;6812;-70
2022/01/24 09:24:53;;;;;;;;;;;;;;;6.24;59.74;102349.84;5036174;28;6808;-71
2022/01/24 09:27:19;;;;;;;;;;;;;;;6.32;59.40;102345.47;5023070;28;6868;-71
2022/01/24 09:29:45;;;;;;;;;;;;;;;6.40;59.15;102351.34;5032393;28;7361;-71
2022/01/24 09:32:11;;;;;;;;;;;;;;;6.48;59.12;102349.50;5029014;28;7180;-71
2022/01/24 09:34:36;;;;;;;;;;;;;;;6.54;59.36;102347.56;5034226;28;6875;-71
2022/01/24 09:37:03;;;;;;;;;;;;;;;6.61;59.23;102347.38;5019571;28;6872;-71
2022/01/24 09:39:28;;;;;;;;;;;;;;;6.68;59.43;102341.25;5032802;28;6804;-71
2022/01/24 09:41:54;;;;;;;;;;;;;;;6.74;59.86;102340.91;5034777;28;7307;-71
2022/01/24 09:44:21;;;;;;;;;;;;;;;6.83;59.21;102348.53;5012213;28;7631;-71
2022/01/24 09:46:47;;;;;;;;;;;;;;;6.88;58.94;102340.56;5030739;28;7021;-71
2022/01/24 09:49:13;;;;;;;;;;;;;;;6.95;58.96;102342.03;5026799;28;6992;-71
2022/01/24 09:51:40;;;;;;;;;;;;;;;7.01;58.92;102347.72;5025545;28;6819;-71
2022/01/24 09:54:07;;;;;;;;;;;;;;;7.07;58.56;102348.28;5020870;28;6803;-71
2022/01/24 09:56:34;;;;;;;;;;;;;;;7.15;58.31;102348.13;5009185;28;7286;-71
2022/01/24 09:59:02;;;;;;;;;;;;;;;7.21;58.59;102347.03;5025321;28;7185;-71
2022/01/24 10:01:30;;;;;;;;;;;;;;;7.29;58.66;102350.28;5023855;28;6811;-71
2022/01/24 10:04:19;;;;;;;;;;;;;;;7.40;58.73;102350.38;5022720;28;7049;-71
2022/01/24 10:07:04;;;;;;;;;;;;;;;7.45;58.53;102346.59;5028260;28;7273;-71
2022/01/24 10:09:43;;;;;;;;;;;;;;;7.52;58.07;102358.25;5023072;28;6840;-71
2022/01/24 10:18:01;;;;;;;;;;;;;;;7.74;57.60;102348.38;5029050;28;7239;-71
2022/01/24 10:20:37;;;;;;;;;;;;;;;8.01;58.67;102346.50;5021829;28;7205;-71
2022/01/24 10:23:16;;;;;;;;;;;;;;;8.79;58.49;102345.59;5034254;28;7087;-71
2022/01/24 10:26:04;;;;;;;;;;;;;;;9.99;55.99;102341.06;5037841;28;7072;-71
2022/01/24 10:28:43;;;;;;;;;;;;;;;11.20;53.93;102341.97;5042236;28;7038;-71
2022/01/24 10:31:28;;;;;;;;;;;;;;;12.28;51.95;102319.91;5042603;28;7136;-71
2022/01/24 10:34:16;;;;;;;;;;;;;;;13.06;50.34;102333.91;5025007;28;6820;-71
2022/01/24 10:36:50;;;;;;;;;;;;;;;13.89;49.78;102327.38;5028808;28;6840;-71
2022/01/24 10:42:59;;;;;;;;;;;;;;;15.16;46.83;102323.19;5039550;28;6907;-71
2022/01/24 10:45:16;;;;;;;;;;;;;;;15.77;46.27;102314.69;5028390;28;6900;-71
2022/01/24 10:47:48;;;;;;;;;;;;;;;16.27;45.06;102315.75;5048427;28;6841;-71
2022/01/24 10:50:29;;;;;;;;;;;;;;;16.71;43.78;102316.41;5048098;28;6903;-71
2022/01/24 10:53:13;;;;;;;;;;;;;;;17.03;42.99;102305.97;5029507;28;6807;-71
2022/01/24 10:55:42;;;;;;;;;;;;;;;17.42;42.65;102301.03;5028535;28;7409;-71
2022/01/24 10:58:18;;;;;;;;;;;;;;;17.86;41.51;102300.56;5028145;28;6863;-72
2022/01/24 11:00:45;;;;;;;;;;;;;;;18.24;41.21;102295.44;5030421;28;6819;-72
2022/01/24 11:03:19;;;;;;;;;;;;;;;18.54;40.82;102300.25;5002594;28;7256;-71
2022/01/24 11:05:46;;;;;;;;;;;;;;;18.78;40.08;102289.22;5042533;28;6820;-71
2022/01/24 11:08:17;;;;;;;;;;;;;;;19.01;39.85;102288.53;5024824;28;6990;-71
2022/01/24 11:10:50;;;;;;;;;;;;;;;19.14;38.81;102289.06;5043723;28;7502;-71
2022/01/24 11:13:24;;;;;;;;;;;;;;;19.05;38.85;102288.69;5023972;28;7370;-71
2022/01/24 11:15:57;;;;;;;;;;;;;;;18.97;38.58;102294.41;5010932;28;7880;-71
2022/01/24 11:18:24;;;;;;;;;;;;;;;18.97;38.01;102290.91;5021183;28;7050;-71
2022/01/24 11:21:01;;;;;;;;;;;;;;;18.91;37.90;102290.66;5013026;28;6811;-71
2022/01/24 11:23:28;;;;;;;;;;;;;;;18.80;38.33;102279.78;5043519;28;7136;-71
2022/01/24 11:26:01;;;;;;;;;;;;;;;18.88;38.12;102268.00;5042935;28;6992;-72
2022/01/24 11:28:28;;;;;;;;;;;;;;;19.06;38.00;102278.34;5037410;28;7256;-71
2022/01/24 11:31:15;;;;;;;;;;;;;;;19.28;37.31;102271.47;5031873;28;6855;-71
2022/01/24 11:33:47;;;;;;;;;;;;;;;19.50;36.64;102261.94;5032555;28;7182;-71
2022/01/24 11:36:12;;;;;;;;;;;;;;;19.63;36.90;102256.41;5021695;28;7185;-71
2022/01/24 11:38:44;;;;;;;;;;;;;;;19.77;36.73;102251.75;5031909;28;7267;-71
2022/01/24 11:41:32;;;;;;;;;;;;;;;19.96;36.29;102257.72;5029174;28;6803;-72
2022/01/24 11:44:08;;;;;;;;;;;;;;;20.06;36.16;102262.44;5020821;28;6819;-72
2022/01/24 11:46:58;;;;;;;;;;;;;;;20.17;35.31;102251.56;5021774;28;7047;-71
2022/01/24 11:49:24;;;;;;;;;;;;;;;20.21;35.57;102254.31;5035053;28;7027;-71
2022/01/24 11:52:12;;;;;;;;;;;;;;;20.37;35.09;102253.19;5038173;28;6867;-72
2022/01/24 11:57:24;;;;;;;;;;;;;;;20.83;34.83;102250.50;5040282;28;6938;-72
2022/01/24 12:00:05;;;;;;;;;;;;;;;20.94;34.33;102243.94;5022961;28;7199;-72
2022/01/24 12:02:42;;;;;;;;;;;;;;;20.94;33.80;102236.09;5038396;28;6832;-72
2022/01/24 12:05:24;;;;;;;;;;;;;;;20.73;34.17;102237.94;5038384;28;7206;-72
2022/01/24 12:07:53;;;;;;;;;;;;;;;20.52;34.14;102237.25;5027618;28;6809;-72
2022/01/24 12:10:25;;;;;;;;;;;;;;;20.46;33.97;102243.94;5007705;28;6900;-72
2022/01/24 12:12:54;;;;;;;;;;;;;;;20.45;34.18;102239.56;5040129;28;6895;-72
2022/01/24 12:15:38;;;;;;;;;;;;;;;20.46;33.97;102239.63;5026503;28;6982;-72
2022/01/24 12:18:23;;;;;;;;;;;;;;;20.44;33.90;102237.78;5022390;28;7162;-72
2022/01/24 12:21:06;;;;;;;;;;;;;;;20.47;33.53;102240.50;5023435;28;7193;-72
2022/01/24 12:23:38;;;;;;;;;;;;;;;20.31;33.60;102239.03;5038257;28;7383;-71
2022/01/24 12:26:06;;;;;;;;;;;;;;;19.52;34.01;102237.78;5064929;28;6792;-71
2022/01/24 12:28:44;;;;;;;;;;;;;;;18.32;35.64;102239.59;5038654;28;7404;-71
2022/01/24 12:31:44;;;;;;;;;;;;;;;17.07;36.13;102233.69;5044772;28;7352;-71
2022/01/24 12:34:23;;;;;;;;;;;;;;;15.72;37.18;102241.13;5035662;28;6907;-72
2022/01/24 12:36:59;;;;;;;;;;;;;;;14.73;38.53;102237.19;5028004;28;7487;-71
2022/01/24 12:39:47;;;;;;;;;;;;;;;13.91;40.09;102238.19;5023249;28;7245;-71
2022/01/24 12:42:34;;;;;;;;;;;;;;;13.26;40.09;102227.13;5028480;28;6908;-71
2022/01/24 12:48:16;;;;;;;;;;;;;;;12.25;41.85;102232.28;5053773;28;6930;-71
2022/01/24 12:50:51;;;;;;;;;;;;;;;11.94;42.36;102238.66;5027401;28;6820;-71
2022/01/24 12:53:19;;;;;;;;;;;;;;;11.72;42.67;102241.34;5021555;28;6819;-71
2022/01/24 12:55:55;;;;;;;;;;;;;;;11.52;43.51;102243.34;5043255;28;6811;-71
2022/01/24 12:58:40;;;;;;;;;;;;;;;11.34;43.90;102236.06;5026106;28;7106;-71
2022/01/24 13:01:22;;;;;;;;;;;;;;;11.17;44.38;102237.41;5035004;28;6962;-71
2022/01/24 13:03:50;;;;;;;;;;;;;;;11.04;44.93;102229.56;5026150;28;6811;-71
2022/01/24 13:06:18;;;;;;;;;;;;;;;10.92;44.77;102225.31;5035615;28;7125;-71
2022/01/24 13:09:19;;;;;;;;;;;;;;;10.79;45.27;102228.59;5020944;28;7081;-71
2022/01/24 13:11:57;;;;;;;;;;;;;;;10.69;45.81;102221.84;5002696;28;7018;-71
2022/01/24 13:14:38;;;;;;;;;;;;;;;10.61;45.92;102228.06;5025817;28;6836;-71
2022/01/24 13:22:56;;;;;;;;;;;;;;;10.36;46.64;102226.13;5038593;28;7904;-72
2022/01/24 13:25:26;;;;;;;;;;;;;;;10.30;46.12;102223.09;5000935;28;7102;-72
2022/01/24 13:28:02;;;;;;;;;;;;;;;10.25;46.75;102215.03;5005394;28;6822;-72
2022/01/24 13:30:29;;;;;;;;;;;;;;;10.22;46.96;102212.25;5019716;28;7043;-72
2022/01/24 13:33:05;;;;;;;;;;;;;;;10.18;46.98;102211.88;5038511;28;7504;-71
2022/01/24 13:36:00;;;;;;;;;;;;;;;10.12;47.66;102215.72;5029835;28;7528;-70
2022/01/24 13:38:46;;;;;;;;;;;;;;;10.08;47.85;102210.25;5020989;28;6990;-71
2022/01/24 13:41:18;;;;;;;;;;;;;;;10.06;47.39;102207.59;5022919;28;7480;-71
2022/01/24 13:44:06;;;;;;;;;;;;;;;10.04;47.54;102211.66;5020494;28;6896;-71
2022/01/24 13:46:40;;;;;;;;;;;;;;;10.04;47.48;102214.22;5052416;28;6900;-71
2022/01/24 13:49:12;;;;;;;;;;;;;;;10.05;48.04;102212.56;5039062;28;6967;-71
2022/01/24 13:51:52;;;;;;;;;;;;;;;10.06;47.63;102204.13;5039101;28;6978;-71
2022/01/24 13:54:26;;;;;;;;;;;;;;;10.04;47.82;102211.66;5033543;28;6907;-71
2022/01/24 13:57:06;;;;;;;;;;;;;;;10.06;48.18;102209.25;5021333;28;6888;-71
2022/01/24 13:59:33;;;;;;;;;;;;;;;10.07;48.77;102203.34;5036314;28;7323;-71
2022/01/24 14:02:19;;;;;;;;;;;;;;;10.09;48.33;102207.81;5031096;28;7209;-71
2022/01/24 14:04:52;;;;;;;;;;;;;;;10.09;49.12;102200.13;5017090;28;6820;-71
2022/01/24 14:07:35;;;;;;;;;;;;;;;10.10;48.79;102204.47;5028062;28;6900;-71
2022/01/24 14:10:07;;;;;;;;;;;;;;;10.11;49.27;102203.69;5037741;28;6831;-71
2022/01/24 14:12:51;;;;;;;;;;;;;;;10.13;48.65;102212.41;5024823;28;7874;-71
2022/01/24 14:15:33;;;;;;;;;;;;;;;10.14;49.30;102214.22;5025151;28;6812;-71
2022/01/24 14:20:55;;;;;;;;;;;;;;;10.11;49.40;102208.81;5059709;28;6892;-71
2022/01/24 14:23:37;;;;;;;;;;;;;;;10.11;49.07;102213.94;5021972;28;6811;-71
2022/01/24 14:26:18;;;;;;;;;;;;;;;10.07;49.31;102206.81;5028625;28;6840;-71
2022/01/24 14:28:44;;;;;;;;;;;;;;;10.06;49.38;102204.13;5025822;28;7458;-71
2022/01/24 14:31:14;;;;;;;;;;;;;;;10.05;48.91;102208.38;5034293;28;7085;-71
2022/01/24 14:33:43;;;;;;;;;;;;;;;10.04;49.63;102209.09;5035545;28;7251;-71
2022/01/24 14:36:16;;;;;;;;;;;;;;;10.02;49.41;102207.22;5042523;28;6815;-71
2022/01/24 14:38:47;;;;;;;;;;;;;;;9.98;49.59;102209.50;5026953;28;6812;-71
2022/01/24 14:41:33;;;;;;;;;;;;;;;9.95;49.47;102206.72;5040737;28;7293;-71
2022/01/24 14:46:46;;;;;;;;;;;;;;;9.88;50.11;102193.31;5013419;28;7136;-71
2022/01/24 14:49:25;;;;;;;;;;;;;;;9.86;49.59;102196.66;5003789;28;7234;-71
2022/01/24 14:52:03;;;;;;;;;;;;;;;9.82;49.51;102188.59;5008783;28;7888;-71
2022/01/24 14:54:32;;;;;;;;;;;;;;;9.81;49.69;102189.38;5006184;28;6804;-71
2022/01/24 14:57:02;;;;;;;;;;;;;;;9.77;50.11;102201.03;5025488;28;6879;-71
2022/01/24 14:59:29;;;;;;;;;;;;;;;9.73;49.53;102191.31;5018012;28;7218;-71
2022/01/24 15:01:57;;;;;;;;;;;;;;;9.71;50.14;102197.97;5038972;28;7219;-71
2022/01/24 15:04:23;;;;;;;;;;;;;;;9.68;49.65;102193.50;5036384;28;7251;-71
2022/01/24 15:06:51;;;;;;;;;;;;;;;9.66;50.53;102192.47;4983749;28;7307;-71